Time;durP1;ratioP1;P1;durP2;ratioP2;P2;SDS_P1;SDS_P2;PMS_P1;PMS_P2;Temp;Humidity;BMP_temperature;BMP_pressure;BME280_temperature;BME280_humidity;BME280_pressure;Samples;Min_cycle;Max_cycle;Signal;HPM_P1;HPM_P2
2023/06/20 00:01:33;;;;;;;5.80;5.20;;;18.30;99.90;;;;;;5030050;28;20206;-91
2023/06/20 00:03:59;;;;;;;6.00;4.97;;;18.20;99.90;;;;;;5013300;28;20611;-91
2023/06/20 00:06:26;;;;;;;6.75;4.88;;;18.20;99.90;;;;;;5016410;28;20329;-88
2023/06/20 00:08:53;;;;;;;5.00;4.60;;;18.20;99.90;;;;;;5029397;28;20580;-90
2023/06/20 00:11:22;;;;;;;5.10;4.60;;;18.20;99.90;;;;;;4994939;28;20230;-90
2023/06/20 00:13:49;;;;;;;5.28;4.78;;;18.20;99.90;;;;;;5033189;28;20276;-90
2023/06/20 00:16:20;;;;;;;6.65;4.82;;;18.10;99.90;;;;;;5017080;28;20194;-90
2023/06/20 00:18:53;;;;;;;5.13;4.53;;;18.10;99.90;;;;;;5027942;28;20304;-90
2023/06/20 00:21:21;;;;;;;7.40;4.43;;;18.10;99.90;;;;;;5014993;28;20357;-90
2023/06/20 00:23:48;;;;;;;5.05;4.65;;;18.10;99.90;;;;;;5024820;28;20190;-89
2023/06/20 00:26:15;;;;;;;5.35;4.65;;;18.10;99.90;;;;;;5012580;28;21680;-89
2023/06/20 00:28:43;;;;;;;5.30;4.80;;;18.00;99.90;;;;;;5029711;28;20195;-89
2023/06/20 00:31:10;;;;;;;5.05;4.65;;;18.00;99.90;;;;;;5030505;28;20229;-89
2023/06/20 00:33:37;;;;;;;5.63;4.38;;;17.90;99.90;;;;;;5029394;28;20248;-89
2023/06/20 00:36:04;;;;;;;5.10;4.70;;;17.90;99.90;;;;;;5007610;28;20620;-90
2023/06/20 00:38:32;;;;;;;5.25;4.75;;;17.90;99.90;;;;;;5019756;28;20203;-89
2023/06/20 00:40:58;;;;;;;5.15;4.75;;;17.90;99.90;;;;;;5008701;28;20211;-89
2023/06/20 00:43:25;;;;;;;5.78;5.25;;;17.90;99.90;;;;;;5012520;28;20253;-89
2023/06/20 00:45:54;;;;;;;5.50;5.00;;;17.90;99.90;;;;;;5028660;28;20202;-89
2023/06/20 00:48:22;;;;;;;5.55;5.05;;;17.80;99.90;;;;;;5029896;28;20206;-89
2023/06/20 00:50:51;;;;;;;5.32;4.85;;;17.80;99.90;;;;;;5003923;28;20223;-89
2023/06/20 00:53:18;;;;;;;5.90;5.40;;;17.80;99.90;;;;;;5025937;28;21437;-89
2023/06/20 00:55:46;;;;;;;5.55;4.88;;;17.90;99.90;;;;;;5020100;28;20210;-89
2023/06/20 00:58:12;;;;;;;7.00;4.90;;;18.00;99.90;;;;;;5029898;28;20202;-89
2023/06/20 01:00:39;;;;;;;5.18;4.78;;;18.00;99.90;;;;;;5027278;28;20199;-88
2023/06/20 01:03:11;;;;;;;5.38;4.80;;;18.00;99.90;;;;;;5032390;28;20205;-89
2023/06/20 01:05:38;;;;;;;5.35;4.68;;;17.90;99.90;;;;;;5027807;28;20206;-88
2023/06/20 01:08:14;;;;;;;6.57;5.03;;;17.80;99.90;;;;;;5029813;28;20214;-88
2023/06/20 01:10:53;;;;;;;6.00;5.50;;;17.80;99.90;;;;;;5030331;28;20214;-89
2023/06/20 01:13:33;;;;;;;6.00;5.40;;;17.70;99.90;;;;;;5029481;28;20843;-88
2023/06/20 01:16:06;;;;;;;6.38;5.15;;;17.80;99.90;;;;;;5020742;28;20203;-88
2023/06/20 01:18:46;;;;;;;6.35;4.93;;;17.80;99.90;;;;;;5028120;28;20225;-88
2023/06/20 01:21:18;;;;;;;5.90;5.30;;;17.80;99.90;;;;;;5030180;28;20198;-88
2023/06/20 01:23:55;;;;;;;6.82;5.15;;;17.70;99.90;;;;;;5010693;28;20194;-88
2023/06/20 01:26:31;;;;;;;5.90;5.35;;;17.70;99.90;;;;;;5029437;28;20554;-88
2023/06/20 01:29:03;;;;;;;5.57;5.07;;;17.70;99.90;;;;;;5025650;28;20203;-88
2023/06/20 01:31:35;;;;;;;5.57;5.07;;;17.70;99.90;;;;;;5029576;28;20254;-88
2023/06/20 01:34:07;;;;;;;6.70;5.28;;;17.70;99.90;;;;;;5009172;28;20252;-88
2023/06/20 01:36:38;;;;;;;5.63;5.05;;;17.70;99.90;;;;;;5012306;28;20228;-88
2023/06/20 01:39:09;;;;;;;6.63;5.68;;;17.80;99.90;;;;;;5029674;28;20570;-88
2023/06/20 01:41:39;;;;;;;5.97;5.25;;;17.80;99.90;;;;;;5030448;28;20198;-88
2023/06/20 01:44:07;;;;;;;5.75;5.25;;;17.90;99.90;;;;;;4995811;28;20211;-88
2023/06/20 01:46:35;;;;;;;7.03;5.30;;;18.00;99.90;;;;;;5016366;28;20199;-88
2023/06/20 01:49:03;;;;;;;7.25;5.22;;;18.10;99.90;;;;;;5017041;28;20198;-88
2023/06/20 01:51:31;;;;;;;6.82;4.93;;;18.10;99.90;;;;;;5008484;28;20222;-87
2023/06/20 01:54:01;;;;;;;5.07;4.68;;;18.10;99.90;;;;;;5028055;28;20214;-87
2023/06/20 01:56:30;;;;;;;5.68;5.18;;;18.10;99.90;;;;;;5027546;28;20805;-87
2023/06/20 01:58:59;;;;;;;8.10;5.60;;;18.10;99.90;;;;;;5025166;28;20202;-88
2023/06/20 02:01:27;;;;;;;5.45;4.95;;;18.10;99.90;;;;;;5022635;28;20613;-87
2023/06/20 02:03:57;;;;;;;6.05;5.45;;;18.10;99.90;;;;;;5030752;28;20199;-86
2023/06/20 02:06:25;;;;;;;7.65;5.63;;;18.00;99.90;;;;;;5012348;28;20213;-87
2023/06/20 02:08:53;;;;;;;5.72;5.13;;;18.00;99.90;;;;;;4996235;28;20211;-88
2023/06/20 02:11:22;;;;;;;8.45;5.28;;;18.00;99.90;;;;;;5012089;28;20280;-86
2023/06/20 02:13:51;;;;;;;5.82;5.22;;;18.00;99.90;;;;;;5028467;28;20203;-87
2023/06/20 02:16:21;;;;;;;5.88;5.38;;;18.00;99.90;;;;;;5028201;28;20679;-87
2023/06/20 02:18:49;;;;;;;5.68;5.18;;;17.90;99.90;;;;;;5026660;28;20215;-88
2023/06/20 02:21:22;;;;;;;5.70;5.20;;;17.90;99.90;;;;;;5026627;28;20207;-88
2023/06/20 02:23:52;;;;;;;7.20;5.45;;;18.00;99.90;;;;;;5023564;28;20248;-88
2023/06/20 02:26:21;;;;;;;6.07;5.53;;;18.00;99.90;;;;;;5023341;28;20206;-87
2023/06/20 02:28:53;;;;;;;6.45;5.82;;;18.00;99.90;;;;;;5026215;28;20195;-87
2023/06/20 02:31:24;;;;;;;8.35;5.35;;;18.00;99.90;;;;;;5015309;28;20646;-87
2023/06/20 02:33:54;;;;;;;6.18;5.57;;;18.00;99.90;;;;;;5029697;28;20199;-87
2023/06/20 02:36:26;;;;;;;6.47;5.97;;;17.90;99.90;;;;;;5013726;28;20198;-88
2023/06/20 02:38:54;;;;;;;7.30;5.53;;;17.90;99.90;;;;;;5021048;28;20199;-87
2023/06/20 02:41:21;;;;;;;8.48;5.75;;;18.00;99.90;;;;;;5030438;28;20210;-87
2023/06/20 02:43:48;;;;;;;7.63;5.97;;;18.00;99.90;;;;;;5033984;28;20674;-86
2023/06/20 02:46:28;;;;;;;6.47;5.88;;;18.10;99.90;;;;;;5033501;28;20665;-87
2023/06/20 02:49:17;;;;;;;7.45;6.28;;;18.10;99.90;;;;;;5032090;28;20202;-87
2023/06/20 02:51:57;;;;;;;6.53;5.70;;;18.10;99.90;;;;;;5028331;28;20682;-86
2023/06/20 02:54:33;;;;;;;5.93;5.40;;;18.10;99.90;;;;;;5011739;28;20282;-86
2023/06/20 02:57:04;;;;;;;6.10;5.50;;;18.10;99.90;;;;;;5010353;28;21283;-87
2023/06/20 02:59:34;;;;;;;7.00;5.65;;;18.20;99.90;;;;;;5008487;28;20253;-86
2023/06/20 03:02:06;;;;;;;7.20;5.65;;;18.10;99.90;;;;;;5033015;28;20211;-87
2023/06/20 03:04:34;;;;;;;6.35;5.75;;;18.20;99.90;;;;;;5030176;28;20570;-88
2023/06/20 03:07:02;;;;;;;6.90;5.43;;;18.20;99.90;;;;;;5030562;28;20198;-87
2023/06/20 03:09:32;;;;;;;6.07;5.45;;;18.20;99.90;;;;;;5032529;28;20262;-88
2023/06/20 03:11:59;;;;;;;6.13;5.55;;;18.20;99.90;;;;;;5030296;28;20276;-87
2023/06/20 03:14:26;;;;;;;6.05;5.47;;;18.20;99.90;;;;;;5031210;28;20571;-87
2023/06/20 03:16:53;;;;;;;6.05;5.55;;;18.20;99.90;;;;;;5027599;28;20203;-87
2023/06/20 03:19:21;;;;;;;7.18;5.70;;;18.20;99.90;;;;;;5034666;28;20226;-86
2023/06/20 03:21:48;;;;;;;5.50;5.00;;;18.20;99.90;;;;;;5025913;28;20198;-88
2023/06/20 03:24:15;;;;;;;6.60;5.65;;;18.20;99.90;;;;;;5027790;28;20196;-88
2023/06/20 03:26:42;;;;;;;7.00;5.65;;;18.20;99.90;;;;;;5030475;28;20198;-87
2023/06/20 03:29:09;;;;;;;6.45;5.20;;;18.30;99.90;;;;;;5007576;28;20231;-88
2023/06/20 03:31:36;;;;;;;7.18;5.43;;;18.20;99.90;;;;;;5031355;28;20218;-87
2023/06/20 03:34:03;;;;;;;9.57;5.85;;;18.20;99.90;;;;;;5027690;28;20198;-87
2023/06/20 03:36:32;;;;;;;5.60;5.20;;;18.20;99.90;;;;;;5031496;28;20199;-88
2023/06/20 03:38:59;;;;;;;6.00;5.50;;;18.20;99.90;;;;;;5028860;28;20205;-87
2023/06/20 03:41:26;;;;;;;7.63;5.20;;;18.20;99.90;;;;;;5027043;28;20285;-88
2023/06/20 03:43:53;;;;;;;6.55;5.50;;;18.20;99.90;;;;;;5025151;28;20613;-87
2023/06/20 03:46:19;;;;;;;7.30;5.65;;;18.20;99.90;;;;;;5012989;28;20201;-87
2023/06/20 03:48:46;;;;;;;6.13;5.63;;;18.20;99.90;;;;;;5027698;28;20201;-87
2023/06/20 03:51:13;;;;;;;6.22;5.50;;;18.10;99.90;;;;;;5025055;28;20217;-86
2023/06/20 03:53:41;;;;;;;6.40;5.80;;;18.10;99.90;;;;;;5012356;28;20195;-86
2023/06/20 03:56:08;;;;;;;6.30;5.70;;;18.10;99.90;;;;;;5026954;28;20203;-87
2023/06/20 03:58:35;;;;;;;6.55;5.85;;;18.10;99.90;;;;;;5030282;28;20199;-88
2023/06/20 04:01:02;;;;;;;6.20;5.70;;;18.10;99.90;;;;;;5027624;28;20206;-87
2023/06/20 04:03:29;;;;;;;6.00;5.40;;;18.10;99.90;;;;;;5031839;28;20653;-87
2023/06/20 04:06:00;;;;;;;6.20;5.70;;;18.10;99.90;;;;;;5015003;28;20207;-88
2023/06/20 04:08:27;;;;;;;6.55;5.95;;;18.10;99.90;;;;;;5026091;28;20221;-87
2023/06/20 04:10:56;;;;;;;6.60;5.97;;;18.10;99.90;;;;;;5007225;28;20210;-88
2023/06/20 04:13:23;;;;;;;6.25;5.65;;;18.10;99.90;;;;;;5024711;28;20190;-87
2023/06/20 04:15:50;;;;;;;7.78;5.72;;;18.10;99.90;;;;;;5018321;28;20202;-88
2023/06/20 04:18:17;;;;;;;8.32;6.22;;;18.00;99.90;;;;;;5021053;28;20683;-87
2023/06/20 04:20:44;;;;;;;6.93;6.22;;;18.00;99.90;;;;;;5030044;28;20202;-87
2023/06/20 04:23:11;;;;;;;6.97;5.63;;;18.10;99.90;;;;;;5022417;28;20273;-87
2023/06/20 04:25:37;;;;;;;6.30;5.80;;;18.20;99.90;;;;;;5005871;28;20194;-88
2023/06/20 04:28:06;;;;;;;7.68;5.78;;;18.20;99.90;;;;;;5032569;28;20202;-89
2023/06/20 04:30:32;;;;;;;8.00;6.05;;;18.20;99.90;;;;;;5030121;28;20202;-89
2023/06/20 04:32:59;;;;;;;7.22;5.60;;;18.20;99.90;;;;;;5030492;28;20229;-88
2023/06/20 04:35:26;;;;;;;6.57;5.80;;;18.30;99.90;;;;;;5031461;28;20646;-85
2023/06/20 04:37:53;;;;;;;6.50;5.90;;;18.30;99.90;;;;;;5035536;28;20281;-85
2023/06/20 04:40:20;;;;;;;6.32;5.68;;;18.40;99.90;;;;;;5013577;28;20269;-88
2023/06/20 04:42:47;;;;;;;6.45;5.80;;;18.40;99.90;;;;;;5000545;28;20245;-86
2023/06/20 04:45:16;;;;;;;6.82;6.00;;;18.40;99.90;;;;;;5006710;28;20203;-88
2023/06/20 04:47:43;;;;;;;8.13;5.30;;;18.40;99.90;;;;;;5030125;28;20661;-86
2023/06/20 04:50:10;;;;;;;6.22;5.63;;;18.50;99.90;;;;;;5034084;28;20547;-86
2023/06/20 04:52:37;;;;;;;6.75;5.38;;;18.50;99.90;;;;;;5027042;28;20219;-86
2023/06/20 04:55:04;;;;;;;7.82;5.70;;;18.60;99.90;;;;;;5027183;28;21713;-86
2023/06/20 04:57:32;;;;;;;5.63;5.13;;;18.70;99.90;;;;;;5028923;28;20202;-85
2023/06/20 04:59:59;;;;;;;6.50;5.90;;;18.80;99.90;;;;;;5013871;28;20245;-88
2023/06/20 05:02:28;;;;;;;6.50;5.85;;;18.80;99.90;;;;;;5023560;28;20205;-89
2023/06/20 05:04:55;;;;;;;5.80;5.25;;;18.90;99.90;;;;;;5005691;28;20202;-87
2023/06/20 05:07:23;;;;;;;6.25;5.75;;;18.90;99.90;;;;;;5022499;28;20691;-87
2023/06/20 05:09:50;;;;;;;6.05;5.55;;;19.00;99.90;;;;;;5020730;28;20215;-88
2023/06/20 05:12:17;;;;;;;6.00;5.50;;;19.10;99.90;;;;;;5017116;28;20226;-87
2023/06/20 05:14:44;;;;;;;5.72;5.22;;;19.20;99.90;;;;;;5024236;28;20217;-85
2023/06/20 05:17:11;;;;;;;6.30;5.68;;;19.30;99.90;;;;;;5026460;28;20639;-88
2023/06/20 05:19:40;;;;;;;7.03;5.00;;;19.40;99.50;;;;;;5025829;28;20195;-87
2023/06/20 05:22:07;;;;;;;5.97;5.40;;;19.50;99.10;;;;;;5029187;28;20206;-87
2023/06/20 05:24:34;;;;;;;6.03;5.03;;;19.70;98.60;;;;;;5027051;28;20210;-87
2023/06/20 05:27:01;;;;;;;5.85;5.20;;;19.70;98.10;;;;;;5029134;28;20206;-87
2023/06/20 05:29:27;;;;;;;7.55;5.55;;;19.90;98.10;;;;;;5005907;28;20642;-84
2023/06/20 05:31:54;;;;;;;6.20;5.03;;;20.20;97.80;;;;;;5031252;28;20272;-88
2023/06/20 05:34:21;;;;;;;5.50;4.90;;;20.50;96.90;;;;;;5029074;28;20203;-86
2023/06/20 05:36:50;;;;;;;5.07;4.63;;;20.70;96.50;;;;;;5022962;28;20812;-88
2023/06/20 05:39:17;;;;;;;5.20;4.70;;;20.90;95.80;;;;;;5026620;28;20648;-88
2023/06/20 05:41:44;;;;;;;6.15;4.97;;;21.00;94.50;;;;;;5035592;28;20202;-87
2023/06/20 05:44:11;;;;;;;5.63;5.10;;;21.00;94.00;;;;;;5025431;28;20198;-88
2023/06/20 05:46:38;;;;;;;11.65;9.10;;;21.10;94.10;;;;;;5021476;28;20201;-89
2023/06/20 05:49:09;;;;;;;5.50;5.00;;;21.20;93.70;;;;;;5012004;28;20194;-85
2023/06/20 05:51:36;;;;;;;44.30;39.63;;;21.30;93.20;;;;;;5022918;28;20628;-86
2023/06/20 05:54:05;;;;;;;19.98;17.90;;;21.40;93.50;;;;;;5028404;28;20223;-84
2023/06/20 05:56:32;;;;;;;6.60;5.80;;;21.50;93.00;;;;;;5030980;28;20210;-86
2023/06/20 05:58:58;;;;;;;5.35;4.80;;;21.70;93.00;;;;;;5012763;28;20210;-86
2023/06/20 06:01:26;;;;;;;6.15;5.03;;;21.90;92.40;;;;;;5027267;28;20194;-84
2023/06/20 06:03:52;;;;;;;5.57;5.00;;;22.00;92.00;;;;;;5027170;28;20203;-85
2023/06/20 06:06:19;;;;;;;5.00;4.50;;;22.10;93.00;;;;;;5027850;28;20210;-86
2023/06/20 06:08:46;;;;;;;5.43;4.55;;;22.20;91.60;;;;;;5002232;28;20202;-88
2023/06/20 06:11:14;;;;;;;5.22;4.30;;;22.20;90.90;;;;;;5024097;28;20199;-86
2023/06/20 06:13:41;;;;;;;6.90;4.40;;;22.20;90.50;;;;;;5027324;28;20218;-85
2023/06/20 06:16:08;;;;;;;4.93;4.32;;;22.30;90.00;;;;;;5022530;28;20226;-84
2023/06/20 06:18:35;;;;;;;5.43;4.30;;;22.30;90.10;;;;;;5016414;28;20218;-85
2023/06/20 06:21:02;;;;;;;5.22;4.72;;;22.30;90.40;;;;;;5029796;28;20206;-86
2023/06/20 06:23:29;;;;;;;4.90;4.50;;;22.40;90.50;;;;;;5019001;28;20194;-85
2023/06/20 06:25:56;;;;;;;4.70;4.13;;;22.30;90.50;;;;;;5031599;28;20290;-84
2023/06/20 06:28:27;;;;;;;4.60;4.18;;;22.20;90.70;;;;;;5029875;28;20655;-84
2023/06/20 06:30:54;;;;;;;5.20;4.30;;;22.20;91.00;;;;;;5037783;28;20203;-85
2023/06/20 06:33:21;;;;;;;5.50;4.63;;;22.10;91.00;;;;;;5033772;28;20597;-84
2023/06/20 06:35:50;;;;;;;4.60;4.20;;;22.20;91.30;;;;;;5031458;28;20655;-85
2023/06/20 06:38:17;;;;;;;4.63;4.20;;;22.10;90.90;;;;;;5030684;28;20679;-85
2023/06/20 06:40:45;;;;;;;4.95;4.13;;;21.90;91.00;;;;;;5035031;28;20579;-84
2023/06/20 06:43:12;;;;;;;20.23;13.63;;;22.00;91.30;;;;;;5013116;28;20667;-84
2023/06/20 06:45:41;;;;;;;5.47;4.97;;;22.10;91.40;;;;;;5027994;28;20194;-84
2023/06/20 06:48:08;;;;;;;10.65;8.32;;;22.10;90.90;;;;;;5030403;28;20257;-86
2023/06/20 06:50:34;;;;;;;5.90;5.28;;;22.20;91.10;;;;;;5030289;28;20207;-85
2023/06/20 06:53:01;;;;;;;5.57;4.30;;;22.10;91.30;;;;;;5029992;28;20233;-86
2023/06/20 06:55:28;;;;;;;4.72;4.22;;;22.10;90.50;;;;;;5027503;28;20286;-86
2023/06/20 06:57:55;;;;;;;4.72;4.32;;;22.00;90.30;;;;;;5017446;28;20206;-85
2023/06/20 07:00:22;;;;;;;6.78;5.13;;;21.90;90.70;;;;;;5013993;28;21053;-86
2023/06/20 07:02:50;;;;;;;6.40;4.40;;;21.70;91.40;;;;;;5026573;28;20668;-84
2023/06/20 07:05:18;;;;;;;5.10;4.40;;;21.70;91.70;;;;;;5029687;28;20198;-85
2023/06/20 07:07:45;;;;;;;5.65;4.60;;;21.60;92.10;;;;;;5026982;28;20281;-85
2023/06/20 07:10:12;;;;;;;4.78;4.35;;;21.50;93.00;;;;;;5036663;28;20202;-83
2023/06/20 07:12:39;;;;;;;40.15;35.75;;;21.40;92.30;;;;;;5014000;28;20270;-85
2023/06/20 07:15:07;;;;;;;33.28;29.35;;;21.40;93.00;;;;;;5018822;28;20563;-84
2023/06/20 07:17:35;;;;;;;9.50;8.43;;;21.50;93.00;;;;;;5028878;28;20222;-85
2023/06/20 07:20:07;;;;;;;4.88;4.47;;;21.50;93.00;;;;;;5031011;28;20222;-85
2023/06/20 07:22:34;;;;;;;26.58;23.75;;;21.50;93.00;;;;;;5016842;28;20209;-86
2023/06/20 07:25:01;;;;;;;6.40;4.40;;;21.40;93.00;;;;;;5031941;28;20198;-85
2023/06/20 07:27:28;;;;;;;5.15;4.57;;;21.40;93.00;;;;;;5018350;28;20237;-84
2023/06/20 07:29:55;;;;;;;5.78;4.60;;;21.40;93.00;;;;;;5031510;28;20202;-86
2023/06/20 07:32:22;;;;;;;5.05;4.65;;;21.40;93.00;;;;;;5030289;28;20222;-85
2023/06/20 07:34:49;;;;;;;5.10;4.60;;;21.30;93.20;;;;;;5026875;28;20195;-84
2023/06/20 07:37:17;;;;;;;5.93;5.43;;;21.30;92.90;;;;;;5022719;28;20198;-85
2023/06/20 07:39:46;;;;;;;5.40;4.88;;;21.30;93.60;;;;;;5040081;28;20225;-84
2023/06/20 07:42:13;;;;;;;5.40;4.88;;;21.30;93.60;;;;;;5014470;28;20636;-84
2023/06/20 07:44:40;;;;;;;5.45;4.95;;;21.40;93.80;;;;;;5034105;28;20648;-85
2023/06/20 07:47:08;;;;;;;6.05;4.85;;;21.50;93.60;;;;;;5032776;28;20202;-84
2023/06/20 07:49:35;;;;;;;8.48;4.93;;;21.80;92.60;;;;;;5041188;28;20243;-83
2023/06/20 07:52:03;;;;;;;4.68;4.28;;;22.10;90.60;;;;;;5028464;28;20751;-83
2023/06/20 07:54:32;;;;;;;5.30;4.03;;;22.60;90.80;;;;;;5023894;28;20824;-86
2023/06/20 07:56:59;;;;;;;4.55;4.13;;;23.10;86.10;;;;;;5015685;28;20194;-84
2023/06/20 07:59:25;;;;;;;4.93;4.25;;;23.50;83.30;;;;;;5032503;28;20202;-85
2023/06/20 08:01:53;;;;;;;4.53;4.13;;;23.70;77.50;;;;;;5038404;28;20221;-86
2023/06/20 08:04:19;;;;;;;4.30;3.90;;;24.00;76.70;;;;;;5032551;28;20652;-86
2023/06/20 08:06:46;;;;;;;4.43;4.03;;;24.10;73.90;;;;;;5027501;28;20214;-85
2023/06/20 08:09:13;;;;;;;4.20;3.88;;;24.30;63.70;;;;;;5032133;28;20202;-84
2023/06/20 08:11:42;;;;;;;4.75;3.92;;;24.30;59.80;;;;;;5031434;28;20317;-85
2023/06/20 08:14:08;;;;;;;4.20;3.80;;;24.70;53.80;;;;;;5027031;28;20223;-85
2023/06/20 08:16:35;;;;;;;4.07;3.65;;;24.80;52.60;;;;;;5031461;28;20201;-86
2023/06/20 08:19:02;;;;;;;4.00;3.60;;;24.50;50.60;;;;;;5031777;28;21520;-86
2023/06/20 08:21:29;;;;;;;4.03;3.63;;;24.80;51.00;;;;;;5013898;28;20229;-86
2023/06/20 08:23:56;;;;;;;4.20;3.70;;;25.20;43.30;;;;;;5028842;28;20206;-87
2023/06/20 08:26:23;;;;;;;3.80;3.47;;;26.40;36.20;;;;;;5007843;28;20194;-85
2023/06/20 08:28:51;;;;;;;4.40;3.20;;;27.80;27.10;;;;;;5032785;28;20198;-86
2023/06/20 08:31:18;;;;;;;4.72;3.50;;;29.60;22.30;;;;;;5029032;28;20199;-86
2023/06/20 08:33:45;;;;;;;4.97;3.03;;;30.30;16.80;;;;;;5029633;28;20218;-86
2023/06/20 08:36:12;;;;;;;3.38;2.83;;;31.50;15.80;;;;;;5022493;28;20209;-86
2023/06/20 08:38:39;;;;;;;3.38;3.08;;;32.30;13.60;;;;;;5029408;28;20190;-87
2023/06/20 08:41:09;;;;;;;5.05;3.20;;;32.30;11.90;;;;;;5030061;28;20202;-86
2023/06/20 08:43:36;;;;;;;4.28;3.10;;;32.80;10.90;;;;;;5027019;28;20206;-86
2023/06/20 08:46:06;;;;;;;3.25;3.03;;;33.10;9.80;;;;;;5024631;28;20690;-86
2023/06/20 08:48:34;;;;;;;3.65;3.00;;;33.20;9.30;;;;;;5032393;28;20198;-85
2023/06/20 08:51:02;;;;;;;3.20;2.90;;;32.50;9.50;;;;;;5029655;28;20255;-86
2023/06/20 08:53:29;;;;;;;7.15;3.30;;;32.60;10.90;;;;;;5031745;28;20707;-89
2023/06/20 08:55:57;;;;;;;3.42;3.13;;;33.50;8.80;;;;;;4994849;28;20248;-89
2023/06/20 08:58:24;;;;;;;4.63;3.20;;;34.30;8.60;;;;;;5024015;28;20618;-88
2023/06/20 09:00:51;;;;;;;4.05;3.10;;;34.40;6.50;;;;;;5026825;28;20209;-89
2023/06/20 09:03:19;;;;;;;3.47;3.13;;;34.40;5.80;;;;;;5013923;28;20202;-88
2023/06/20 09:05:46;;;;;;;3.35;3.05;;;34.90;5.30;;;;;;5015898;28;20245;-90
2023/06/20 09:08:15;;;;;;;4.50;3.60;;;35.20;4.80;;;;;;5012600;28;20210;-88
2023/06/20 09:10:44;;;;;;;4.20;3.25;;;35.60;4.80;;;;;;5026204;28;20202;-88
2023/06/20 09:13:12;;;;;;;3.50;3.17;;;35.40;4.30;;;;;;5029700;28;20253;-89
2023/06/20 09:15:39;;;;;;;4.00;3.00;;;35.10;3.90;;;;;;5031653;28;20638;-87
2023/06/20 09:18:07;;;;;;;5.70;3.75;;;34.70;6.00;;;;;;5031259;28;20230;-86
2023/06/20 09:20:35;;;;;;;5.00;3.35;;;34.20;5.30;;;;;;5029627;28;20206;-89
2023/06/20 09:23:02;;;;;;;5.95;3.60;;;33.80;7.30;;;;;;5016385;28;20201;-89
2023/06/20 09:25:30;;;;;;;3.95;3.65;;;34.20;7.30;;;;;;5006644;28;20199;-88
2023/06/20 09:27:58;;;;;;;3.97;3.67;;;34.50;5.30;;;;;;5028110;28;20206;-88
2023/06/20 09:30:30;;;;;;;3.88;3.58;;;35.10;5.60;;;;;;5018089;28;20202;-89
2023/06/20 09:33:03;;;;;;;5.03;3.70;;;34.90;8.40;;;;;;5020695;28;20693;-88
2023/06/20 09:35:31;;;;;;;3.95;3.65;;;34.40;6.60;;;;;;5028902;28;20190;-89
2023/06/20 09:38:03;;;;;;;4.30;3.90;;;34.40;6.50;;;;;;5031100;28;20206;-88
2023/06/20 09:40:30;;;;;;;4.40;4.00;;;34.90;5.20;;;;;;5029061;28;20198;-88
2023/06/20 09:42:58;;;;;;;4.68;4.20;;;34.90;4.90;;;;;;4994627;28;20652;-88
2023/06/20 09:45:25;;;;;;;3.88;3.58;;;35.10;4.10;;;;;;5030406;28;20202;-88
2023/06/20 09:47:55;;;;;;;9.13;7.20;;;35.00;5.00;;;;;;5030160;28;20229;-89
2023/06/20 09:50:24;;;;;;;5.18;4.78;;;35.10;4.60;;;;;;5009500;28;20206;-89
2023/06/20 09:52:56;;;;;;;4.22;3.90;;;35.20;4.90;;;;;;5028501;28;20229;-88
2023/06/20 09:55:36;;;;;;;5.35;4.03;;;35.30;6.50;;;;;;5026585;28;20696;-89
2023/06/20 09:58:04;;;;;;;4.63;4.22;;;35.70;4.30;;;;;;5016589;28;20209;-88
2023/06/20 10:00:32;;;;;;;4.65;4.20;;;35.60;3.50;;;;;;5034968;28;20665;-90
2023/06/20 10:03:00;;;;;;;4.35;4.05;;;35.20;6.20;;;;;;5008241;28;20213;-89
2023/06/20 10:05:28;;;;;;;4.28;3.85;;;35.40;4.30;;;;;;5030861;28;20194;-89
2023/06/20 10:07:57;;;;;;;4.90;4.40;;;35.50;3.20;;;;;;5028630;28;20213;-89
2023/06/20 10:10:26;;;;;;;4.18;3.78;;;35.60;3.30;;;;;;5014089;28;20197;-89
2023/06/20 10:12:53;;;;;;;5.22;4.50;;;35.90;2.10;;;;;;5030916;28;20226;-88
2023/06/20 10:15:22;;;;;;;4.60;4.20;;;35.60;3.90;;;;;;5017246;28;20194;-88
2023/06/20 10:17:49;;;;;;;5.22;4.32;;;35.50;3.50;;;;;;5025643;28;20725;-89
2023/06/20 10:20:31;;;;;;;6.03;4.35;;;36.00;2.10;;;;;;5012565;28;20217;-89
2023/06/20 10:23:00;;;;;;;6.57;4.65;;;36.90;1.80;;;;;;5013058;28;20208;-89
2023/06/20 10:25:30;;;;;;;4.45;4.07;;;36.80;3.00;;;;;;5014015;28;20194;-88
2023/06/20 10:28:00;;;;;;;4.75;4.35;;;37.00;1.00;;;;;;5032653;28;20236;-89
2023/06/20 10:31:01;;;;;;;4.32;3.97;;;36.20;2.10;;;;;;5031354;28;20201;-90
2023/06/20 10:33:29;;;;;;;4.50;4.20;;;36.00;1.70;;;;;;5030433;28;20243;-88
2023/06/20 10:35:58;;;;;;;5.15;3.90;;;35.50;5.00;;;;;;5029555;28;20556;-89
2023/06/20 10:38:28;;;;;;;6.85;4.07;;;35.10;6.40;;;;;;5028590;28;20202;-87
2023/06/20 10:41:12;;;;;;;4.85;4.00;;;35.00;3.50;;;;;;5030280;28;20208;-90
2023/06/20 10:43:51;;;;;;;4.55;4.10;;;35.50;3.40;;;;;;5011950;28;20195;-88
2023/06/20 10:46:19;;;;;;;4.00;3.60;;;35.60;2.40;;;;;;5025215;28;20646;-88
2023/06/20 10:48:46;;;;;;;3.95;3.58;;;35.40;2.70;;;;;;5030175;28;20206;-88
2023/06/20 10:51:13;;;;;;;4.10;3.70;;;35.70;2.80;;;;;;5023525;28;20199;-91
2023/06/20 10:53:39;;;;;;;5.38;3.80;;;35.10;6.60;;;;;;5027389;28;20218;-88
2023/06/20 10:56:07;;;;;;;6.18;3.80;;;35.00;5.90;;;;;;5032461;28;20209;-89
2023/06/20 10:58:35;;;;;;;4.15;3.55;;;35.10;3.60;;;;;;5026618;28;20202;-87
2023/06/20 11:01:02;;;;;;;5.07;3.75;;;34.80;2.60;;;;;;5032554;28;20198;-89
2023/06/20 11:03:29;;;;;;;6.07;3.63;;;34.90;3.20;;;;;;5030765;28;20202;-87
2023/06/20 11:05:56;;;;;;;3.80;3.45;;;35.50;1.30;;;;;;5032878;28;20733;-88
2023/06/20 11:08:26;;;;;;;4.22;3.72;;;35.00;4.60;;;;;;5033259;28;20216;-87
2023/06/20 11:10:53;;;;;;;4.60;3.40;;;35.00;3.60;;;;;;5017625;28;20211;-88
2023/06/20 11:13:20;;;;;;;4.45;3.50;;;34.50;4.60;;;;;;5032545;28;20603;-88
2023/06/20 11:15:49;;;;;;;3.72;3.38;;;34.40;3.70;;;;;;5034854;28;20194;-87
2023/06/20 11:18:16;;;;;;;4.30;3.22;;;33.40;4.70;;;;;;5019164;28;20226;-87
2023/06/20 11:20:44;;;;;;;3.80;3.42;;;32.80;6.70;;;;;;5027979;28;20194;-86
2023/06/20 11:23:12;;;;;;;5.82;3.40;;;32.80;6.40;;;;;;5039724;28;20206;-86
2023/06/20 11:25:40;;;;;;;3.42;3.00;;;33.00;7.40;;;;;;5026353;28;20198;-84
2023/06/20 11:28:10;;;;;;;4.38;3.22;;;32.90;5.90;;;;;;5030158;28;20204;-86
2023/06/20 11:30:38;;;;;;;5.85;5.13;;;32.70;5.20;;;;;;5017614;28;20202;-84
2023/06/20 11:33:09;;;;;;;16.35;14.00;;;32.50;8.20;;;;;;5029907;28;20746;-86
2023/06/20 11:35:44;;;;;;;5.80;4.47;;;32.50;8.20;;;;;;5032164;28;20233;-86
2023/06/20 11:38:13;;;;;;;4.93;3.95;;;32.60;6.10;;;;;;5014473;28;20220;-86
2023/06/20 11:40:41;;;;;;;4.57;3.58;;;32.70;8.30;;;;;;5015244;28;20670;-86
2023/06/20 11:43:18;;;;;;;5.10;3.38;;;32.80;6.10;;;;;;5032582;28;20205;-86
2023/06/20 11:45:45;;;;;;;3.60;3.30;;;32.70;6.40;;;;;;5030664;28;20198;-85
2023/06/20 11:48:14;;;;;;;3.75;3.13;;;32.70;7.70;;;;;;5031777;28;20201;-87
2023/06/20 11:50:43;;;;;;;6.22;3.30;;;32.70;6.10;;;;;;5028094;28;20204;-86
2023/06/20 11:53:24;;;;;;;5.95;3.25;;;32.60;7.80;;;;;;5034066;28;20202;-85
2023/06/20 11:55:53;;;;;;;4.75;3.40;;;32.90;8.40;;;;;;5028330;28;20655;-85
2023/06/20 11:58:21;;;;;;;7.15;3.90;;;32.90;6.40;;;;;;5028132;28;20200;-85
2023/06/20 12:01:00;;;;;;;4.57;3.47;;;32.90;6.60;;;;;;5010324;28;20190;-85
2023/06/20 12:03:29;;;;;;;5.50;3.75;;;32.90;6.90;;;;;;5034124;28;20194;-85
2023/06/20 12:05:57;;;;;;;5.20;3.55;;;32.90;6.80;;;;;;5008655;28;20202;-86
2023/06/20 12:08:25;;;;;;;6.13;3.65;;;32.90;6.50;;;;;;5026178;28;20554;-86
2023/06/20 12:11:00;;;;;;;4.22;3.38;;;32.90;6.00;;;;;;5016117;28;20336;-85
2023/06/20 12:13:27;;;;;;;5.03;3.63;;;32.50;8.30;;;;;;5032200;28;21073;-85
2023/06/20 12:15:55;;;;;;;8.40;3.70;;;32.40;7.80;;;;;;5030271;28;20212;-85
2023/06/20 12:18:22;;;;;;;4.25;3.60;;;32.00;7.10;;;;;;5032356;28;20218;-86
2023/06/20 12:20:50;;;;;;;4.03;3.30;;;32.10;8.00;;;;;;5027928;28;20207;-85
2023/06/20 12:23:18;;;;;;;6.88;3.90;;;32.30;7.20;;;;;;5032097;28;20210;-86
2023/06/20 12:25:45;;;;;;;4.82;3.40;;;32.60;6.50;;;;;;5023252;28;20621;-85
2023/06/20 12:28:12;;;;;;;5.65;3.90;;;32.60;7.40;;;;;;5033368;28;20569;-86
2023/06/20 12:30:39;;;;;;;5.18;3.80;;;32.60;5.90;;;;;;5033132;28;20663;-84
2023/06/20 12:33:09;;;;;;;7.95;4.00;;;32.70;5.50;;;;;;5015134;28;20198;-85
2023/06/20 12:35:36;;;;;;;4.45;3.20;;;32.70;6.90;;;;;;5015315;28;20200;-85
2023/06/20 12:38:04;;;;;;;5.75;3.50;;;32.30;6.00;;;;;;5015900;28;20268;-86
2023/06/20 12:40:31;;;;;;;8.52;3.72;;;31.70;8.20;;;;;;5023540;28;20206;-86
2023/06/20 12:42:58;;;;;;;7.60;3.50;;;31.80;7.90;;;;;;5031097;28;20205;-86
2023/06/20 12:45:25;;;;;;;4.35;3.70;;;31.60;7.80;;;;;;5011515;28;20197;-86
2023/06/20 12:47:52;;;;;;;5.40;3.67;;;31.60;7.50;;;;;;5029295;28;20202;-84
2023/06/20 12:50:19;;;;;;;9.23;3.80;;;31.60;7.80;;;;;;5011217;28;20241;-85
2023/06/20 12:52:46;;;;;;;6.57;3.70;;;32.10;6.50;;;;;;5019369;28;20197;-83
2023/06/20 12:55:15;;;;;;;9.27;4.22;;;32.20;7.90;;;;;;5028207;28;20237;-85
2023/06/20 12:57:42;;;;;;;8.63;3.47;;;32.00;6.20;;;;;;5032006;28;20198;-85